Time;durP1;ratioP1;P1;durP2;ratioP2;P2;SDS_P1;SDS_P2;PMS_P1;PMS_P2;Temp;Humidity;BMP_temperature;BMP_pressure;BME280_temperature;BME280_humidity;BME280_pressure;Samples;Min_cycle;Max_cycle;Signal;HPM_P1;HPM_P2
2024/01/17 00:01:31;;;;;;;11.07;4.38;;;;;;;1.94;57.99;100186.78;4923677;28;123747;-79
2024/01/17 00:03:59;;;;;;;9.82;4.75;;;;;;;1.93;57.95;100185.06;4928954;28;123312;-79
2024/01/17 00:06:26;;;;;;;10.30;4.03;;;;;;;1.93;58.08;100185.06;4929185;28;114285;-79
2024/01/17 00:08:54;;;;;;;10.40;4.68;;;;;;;1.93;57.98;100182.47;4934936;28;114294;-79
2024/01/17 00:11:21;;;;;;;8.68;4.30;;;;;;;1.92;57.86;100173.78;4933355;28;124075;-79
2024/01/17 00:13:50;;;;;;;12.25;4.93;;;;;;;1.92;57.88;100162.44;4925837;28;122936;-79
2024/01/17 00:16:21;;;;;;;10.88;4.28;;;;;;;1.90;57.95;100159.00;4926397;28;114247;-78
2024/01/17 00:18:49;;;;;;;10.27;4.35;;;;;;;1.89;57.44;100152.09;4933734;28;113893;-79
2024/01/17 00:21:22;;;;;;;8.98;3.92;;;;;;;1.89;57.88;100146.88;4915419;28;124169;-79
2024/01/17 00:23:50;;;;;;;12.45;4.20;;;;;;;1.88;57.94;100145.13;4933942;28;122987;-79
2024/01/17 00:26:18;;;;;;;7.70;4.53;;;;;;;1.87;57.81;100148.66;4934144;28;114489;-79
2024/01/17 00:28:45;;;;;;;11.02;4.50;;;;;;;1.88;58.32;100139.91;4932352;28;114385;-79
2024/01/17 00:31:14;;;;;;;9.52;4.13;;;;;;;1.87;57.91;100144.28;4933976;28;124072;-80
2024/01/17 00:33:42;;;;;;;8.00;4.47;;;;;;;1.84;57.99;100139.09;4934694;28;124298;-79
2024/01/17 00:36:10;;;;;;;10.20;4.68;;;;;;;1.83;57.95;100128.69;4924030;28;113427;-79
2024/01/17 00:38:38;;;;;;;10.80;4.65;;;;;;;1.82;57.85;100129.59;4902483;28;113052;-79
2024/01/17 00:41:09;;;;;;;9.60;4.57;;;;;;;1.80;57.82;100120.94;4920753;28;123559;-79
2024/01/17 00:43:36;;;;;;;12.68;4.90;;;;;;;1.79;57.80;100119.22;4930973;28;123889;-79
2024/01/17 00:46:04;;;;;;;10.15;4.57;;;;;;;1.78;57.81;100109.69;4927665;28;114980;-79
2024/01/17 00:48:32;;;;;;;11.32;5.03;;;;;;;1.75;57.79;100103.63;4922103;28;114391;-79
2024/01/17 00:51:01;;;;;;;8.93;4.65;;;;;;;1.73;57.80;100100.19;4933322;28;124626;-79
2024/01/17 00:53:29;;;;;;;11.35;4.90;;;;;;;1.71;57.87;100096.75;4927699;28;123976;-79
2024/01/17 00:55:58;;;;;;;10.00;4.70;;;;;;;1.70;57.79;100102.84;4926011;28;114163;-79
2024/01/17 00:58:25;;;;;;;7.80;4.47;;;;;;;1.68;58.00;100086.38;4937505;28;114022;-80
2024/01/17 01:00:59;;;;;;;11.10;5.40;;;;;;;1.66;58.03;100088.16;4940495;28;124001;-79
2024/01/17 01:03:26;;;;;;;10.32;4.43;;;;;;;1.66;58.15;100082.09;4942525;28;122693;-79
2024/01/17 01:05:54;;;;;;;9.13;4.55;;;;;;;1.64;58.03;100079.50;4942525;28;113877;-79
2024/01/17 01:08:22;;;;;;;9.82;4.88;;;;;;;1.64;58.25;100079.50;4941666;28;113334;-80
2024/01/17 01:10:51;;;;;;;11.70;5.03;;;;;;;1.64;57.96;100069.06;4943658;28;123759;-80
2024/01/17 01:13:18;;;;;;;9.75;4.50;;;;;;;1.62;57.78;100060.41;4926757;28;124048;-80
2024/01/17 01:15:46;;;;;;;11.18;4.40;;;;;;;1.61;57.88;100058.69;4943568;28;114874;-79
2024/01/17 01:18:13;;;;;;;8.90;4.50;;;;;;;1.61;57.98;100053.47;4941907;28;114288;-80
2024/01/17 01:20:41;;;;;;;11.05;4.53;;;;;;;1.61;57.95;100048.25;4939841;28;123335;-80
2024/01/17 01:23:10;;;;;;;10.38;4.80;;;;;;;1.62;57.93;100043.88;4916199;28;124541;-80
2024/01/17 01:25:37;;;;;;;11.63;4.88;;;;;;;1.62;57.99;100046.47;4944446;28;113858;-80
2024/01/17 01:28:05;;;;;;;14.27;5.18;;;;;;;1.63;58.00;100045.59;4924323;28;112915;-80
2024/01/17 01:30:32;;;;;;;10.35;4.82;;;;;;;1.62;57.75;100044.75;4929728;28;123456;-80
2024/01/17 01:33:00;;;;;;;12.07;4.65;;;;;;;1.63;58.13;100041.22;4925094;28;122816;-80
2024/01/17 01:35:27;;;;;;;12.63;4.53;;;;;;;1.63;57.90;100049.06;4924807;28;115483;-80
2024/01/17 01:37:55;;;;;;;11.73;5.07;;;;;;;1.63;58.08;100051.66;4913913;28;116293;-79
2024/01/17 01:40:22;;;;;;;9.35;4.35;;;;;;;1.63;58.09;100051.66;4932170;28;124131;-79
2024/01/17 01:42:50;;;;;;;9.57;4.47;;;;;;;1.61;58.17;100043.00;4936457;28;123522;-79
2024/01/17 01:45:17;;;;;;;10.20;4.25;;;;;;;1.62;58.02;100038.66;4917817;28;114678;-78
2024/01/17 01:47:44;;;;;;;9.93;5.00;;;;;;;1.62;57.75;100034.31;4919692;28;113570;-78
2024/01/17 01:50:14;;;;;;;14.80;4.47;;;;;;;1.63;58.00;100030.78;4936776;28;123566;-78
2024/01/17 01:52:44;;;;;;;11.55;4.82;;;;;;;1.60;57.55;100025.66;4936250;28;122976;-79
2024/01/17 01:55:12;;;;;;;11.15;4.88;;;;;;;1.60;57.73;100025.66;4939623;28;113899;-79
2024/01/17 01:57:46;;;;;;;13.93;5.05;;;;;;;1.60;58.25;100025.66;4936685;28;113752;-79
2024/01/17 02:00:17;;;;;;;;;;;;;;;1.59;57.93;100018.72;4934707;28;124899;-79
2024/01/17 02:02:49;;;;;;;11.65;5.32;;;;;;;1.59;57.79;100018.72;4932400;28;124247;-79
2024/01/17 02:05:17;;;;;;;9.68;5.00;;;;;;;1.58;57.90;100011.75;4935666;28;113435;-79
2024/01/17 02:07:45;;;;;;;10.55;4.90;;;;;;;1.57;57.76;100004.84;4905006;28;113720;-79
2024/01/17 02:10:14;;;;;;;11.15;4.95;;;;;;;1.57;57.83;99999.63;4921267;28;123924;-79
2024/01/17 02:12:42;;;;;;;10.73;4.22;;;;;;;1.56;57.95;99997.88;4937787;28;124732;-79
2024/01/17 02:15:09;;;;;;;9.00;4.50;;;;;;;1.56;57.95;99997.88;4938303;28;112481;-78
2024/01/17 02:17:38;;;;;;;9.40;4.50;;;;;;;1.55;57.93;99993.56;4936057;28;113705;-78
2024/01/17 02:20:07;;;;;;;12.40;4.72;;;;;;;1.53;57.96;99987.53;4935992;28;124143;-79
2024/01/17 02:22:36;;;;;;;11.55;4.97;;;;;;;1.53;58.01;99988.38;4923721;28;124166;-79
2024/01/17 02:25:04;;;;;;;10.88;4.85;;;;;;;1.55;58.06;99980.53;4927874;28;115742;-78
2024/01/17 02:27:33;;;;;;;9.98;5.03;;;;;;;1.55;57.95;99975.31;4921193;28;114208;-79
2024/01/17 02:30:00;;;;;;;14.68;4.82;;;;;;;1.53;57.93;99971.88;4935207;28;123861;-79
2024/01/17 02:32:28;;;;;;;8.65;4.43;;;;;;;1.54;57.90;99965.75;4933710;28;124646;-80
2024/01/17 02:35:13;;;;;;;11.23;5.15;;;;;;;1.53;57.91;99969.25;4933324;28;113836;-78
2024/01/17 02:37:40;;;;;;;13.75;5.30;;;;;;;1.53;57.83;99956.22;4918857;28;113450;-78
2024/01/17 02:40:18;;;;;;;9.23;4.80;;;;;;;1.52;58.04;99949.28;4918244;28;122992;-78
2024/01/17 02:42:45;;;;;;;10.30;4.90;;;;;;;1.53;57.99;99940.56;4935704;28;125000;-77
2024/01/17 02:45:19;;;;;;;14.60;5.15;;;;;;;1.53;58.13;99940.56;4935908;28;113746;-77
2024/01/17 02:47:47;;;;;;;9.73;5.40;;;;;;;1.53;57.92;99936.19;4919094;28;113273;-77
2024/01/17 02:50:17;;;;;;;11.45;5.22;;;;;;;1.53;57.93;99936.19;4915327;28;123584;-78
2024/01/17 02:52:45;;;;;;;12.40;4.93;;;;;;;1.53;57.92;99930.13;4932682;28;123796;-77
2024/01/17 02:55:16;;;;;;;11.00;5.10;;;;;;;1.51;57.92;99922.31;4937593;28;113955;-78
2024/01/17 02:57:44;;;;;;;11.00;4.65;;;;;;;1.52;58.16;99907.53;4933273;28;113576;-77
2024/01/17 03:00:11;;;;;;;10.48;4.82;;;;;;;1.52;58.00;99910.13;4934191;28;124038;-77
2024/01/17 03:02:41;;;;;;;8.77;4.60;;;;;;;1.52;57.89;99907.53;4932462;28;124262;-77
2024/01/17 03:05:09;;;;;;;6.90;4.32;;;;;;;1.52;57.98;99907.53;4933030;28;114718;-77
2024/01/17 03:07:37;;;;;;;9.43;4.30;;;;;;;1.50;58.13;99906.69;4933249;28;113299;-77
2024/01/17 03:10:05;;;;;;;10.68;5.10;;;;;;;1.50;57.94;99899.72;4933592;28;123992;-77
2024/01/17 03:12:32;;;;;;;13.93;4.72;;;;;;;1.51;57.92;99895.38;4933999;28;124458;-77
2024/01/17 03:14:59;;;;;;;9.00;4.28;;;;;;;1.51;57.99;99887.56;4917070;28;114215;-77
2024/01/17 03:17:27;;;;;;;10.55;4.75;;;;;;;1.53;58.05;99888.38;4926430;28;115210;-77
2024/01/17 03:19:57;;;;;;;9.88;4.00;;;;;;;1.52;58.08;99881.44;4933333;28;123544;-77
2024/01/17 03:22:24;;;;;;;12.82;4.63;;;;;;;1.52;57.98;99881.44;4932486;28;123523;-77
2024/01/17 03:24:51;;;;;;;10.05;4.10;;;;;;;1.54;57.89;99879.63;4924375;28;113888;-76
2024/01/17 03:27:18;;;;;;;11.45;4.38;;;;;;;1.52;57.86;99865.78;4920264;28;113986;-76
2024/01/17 03:29:46;;;;;;;10.00;4.32;;;;;;;1.55;57.98;99876.16;4933010;28;124311;-76
2024/01/17 03:32:18;;;;;;;8.30;4.28;;;;;;;1.54;57.89;99861.38;4931442;28;123091;-77
2024/01/17 03:34:46;;;;;;;12.20;4.88;;;;;;;1.56;57.79;99856.97;4918578;28;114645;-76
2024/01/17 03:37:15;;;;;;;10.30;4.40;;;;;;;1.55;58.02;99860.50;4932274;28;114530;-76
2024/01/17 03:39:44;;;;;;;8.85;4.43;;;;;;;1.56;57.90;99856.97;4933941;28;123453;-77
2024/01/17 03:42:15;;;;;;;11.68;4.38;;;;;;;1.56;57.70;99851.75;4912798;28;123400;-77
2024/01/17 03:44:44;;;;;;;10.25;4.47;;;;;;;1.57;57.88;99843.03;4930090;28;113802;-77
2024/01/17 03:47:12;;;;;;;9.93;4.68;;;;;;;1.57;58.06;99832.59;4930970;28;114552;-76
2024/01/17 03:49:39;;;;;;;12.18;5.05;;;;;;;1.59;57.73;99830.81;4934304;28;123824;-76
2024/01/17 03:52:10;;;;;;;11.15;4.80;;;;;;;1.59;57.86;99825.59;4908262;28;122982;-76
2024/01/17 03:54:38;;;;;;;10.23;5.03;;;;;;;1.58;57.71;99808.22;4916618;28;118166;-76
2024/01/17 03:57:05;;;;;;;12.13;4.78;;;;;;;1.55;57.87;99803.09;4922478;28;118922;-75
2024/01/17 03:59:33;;;;;;;17.35;5.40;;;;;;;1.53;57.63;99799.66;4912703;28;124939;-75
2024/01/17 04:02:01;;;;;;;10.18;5.18;;;;;;;1.51;57.58;99797.09;4912228;28;124329;-75
2024/01/17 04:04:28;;;;;;;10.43;5.00;;;;;;;1.50;57.87;99789.28;4926733;28;120469;-75
2024/01/17 04:06:55;;;;;;;10.18;5.05;;;;;;;1.47;57.61;99789.34;4905000;28;118545;-76
2024/01/17 04:09:24;;;;;;;12.38;5.05;;;;;;;1.46;57.70;99790.25;4928531;28;123376;-76
2024/01/17 04:11:52;;;;;;;13.95;5.30;;;;;;;1.43;57.63;99782.50;4931177;28;123296;-75
2024/01/17 04:14:20;;;;;;;11.73;4.90;;;;;;;1.40;57.36;99778.22;4929012;28;119081;-75
2024/01/17 04:16:49;;;;;;;9.93;4.80;;;;;;;1.38;57.97;99766.13;4913972;28;118138;-76
2024/01/17 04:19:16;;;;;;;12.25;5.00;;;;;;;1.35;57.74;99765.28;4898459;28;124192;-75
2024/01/17 04:21:43;;;;;;;10.18;5.03;;;;;;;1.32;57.71;99748.88;4907844;28;123849;-76
2024/01/17 04:24:11;;;;;;;10.90;4.80;;;;;;;1.32;58.11;99735.84;4921098;28;118556;-76
2024/01/17 04:26:38;;;;;;;11.65;4.97;;;;;;;1.31;57.84;99727.13;4932098;28;119877;-75
2024/01/17 04:29:05;;;;;;;13.52;4.80;;;;;;;1.30;57.97;99719.34;4933255;28;123308;-75
2024/01/17 04:31:32;;;;;;;11.77;5.28;;;;;;;1.31;57.84;99708.88;4931849;28;122946;-75
2024/01/17 04:34:02;;;;;;;8.88;4.78;;;;;;;1.31;57.98;99706.25;4929922;28;119165;-75
2024/01/17 04:36:31;;;;;;;8.70;4.45;;;;;;;1.32;57.87;99697.56;4931880;28;120056;-75
2024/01/17 04:39:00;;;;;;;12.18;4.82;;;;;;;1.32;57.83;99692.34;4915185;28;123050;-75
2024/01/17 04:41:28;;;;;;;10.32;5.15;;;;;;;1.32;57.86;99684.53;4930654;28;123607;-75
2024/01/17 04:43:55;;;;;;;11.85;4.82;;;;;;;1.32;57.96;99681.91;4929401;28;118989;-75
2024/01/17 04:46:23;;;;;;;10.75;4.68;;;;;;;1.33;57.84;99673.16;4931591;28;117939;-74
2024/01/17 04:48:51;;;;;;;8.48;4.47;;;;;;;1.33;57.86;99673.16;4931329;28;123638;-75
2024/01/17 04:51:25;;;;;;;13.02;4.97;;;;;;;1.32;57.67;99671.47;4931441;28;123972;-75
2024/01/17 04:53:53;;;;;;;9.27;4.60;;;;;;;1.31;57.90;99659.31;4929025;28;119779;-74
2024/01/17 04:56:20;;;;;;;11.30;4.82;;;;;;;1.30;57.70;99655.00;4912011;28;120605;-75
2024/01/17 04:58:47;;;;;;;9.95;4.70;;;;;;;1.29;57.89;99644.63;4931358;28;124980;-75
2024/01/17 05:01:14;;;;;;;12.48;4.95;;;;;;;1.28;57.84;99648.97;4896071;28;124137;-75
2024/01/17 05:03:44;;;;;;;11.15;4.72;;;;;;;1.28;57.98;99654.19;4914028;28;118288;-75
2024/01/17 05:06:12;;;;;;;10.98;4.32;;;;;;;1.25;57.88;99651.66;4931266;28;118818;-75
2024/01/17 05:08:40;;;;;;;9.38;3.90;;;;;;;1.27;57.89;99652.47;4928029;28;124534;-75
2024/01/17 05:11:07;;;;;;;11.02;5.28;;;;;;;1.25;57.87;99649.06;4930502;28;124574;-75
2024/01/17 05:13:34;;;;;;;11.25;4.45;;;;;;;1.25;57.41;99643.84;4925487;28;119279;-75
2024/01/17 05:16:05;;;;;;;11.38;4.72;;;;;;;1.25;57.99;99638.63;4932435;28;117999;-75
2024/01/17 05:18:32;;;;;;;9.30;4.43;;;;;;;1.25;57.74;99630.78;4929849;28;124044;-74
2024/01/17 05:21:00;;;;;;;11.07;4.82;;;;;;;1.25;57.92;99617.75;4915668;28;123661;-75
2024/01/17 05:23:27;;;;;;;9.25;4.55;;;;;;;1.23;57.80;99624.75;4932635;28;119810;-75
2024/01/17 05:25:55;;;;;;;9.77;4.35;;;;;;;1.21;57.81;99620.50;4930556;28;118665;-76
2024/01/17 05:28:22;;;;;;;8.18;4.35;;;;;;;1.19;57.80;99615.31;4932504;28;124272;-75
2024/01/17 05:30:50;;;;;;;13.15;4.68;;;;;;;1.21;57.96;99610.06;4930551;28;123736;-75
2024/01/17 05:33:17;;;;;;;10.65;4.57;;;;;;;1.18;58.03;99610.97;4931384;28;119060;-75
2024/01/17 05:35:45;;;;;;;9.38;4.10;;;;;;;1.21;57.91;99605.69;4915462;28;117108;-75
2024/01/17 05:38:12;;;;;;;10.35;4.70;;;;;;;1.20;58.00;99598.75;4926685;28;123906;-75
2024/01/17 05:40:39;;;;;;;8.60;4.70;;;;;;;1.20;57.87;99588.31;4916148;28;123121;-76
2024/01/17 05:43:07;;;;;;;8.80;4.70;;;;;;;1.21;58.13;99584.00;4928232;28;120950;-75
2024/01/17 05:45:34;;;;;;;9.85;4.80;;;;;;;1.21;58.06;99582.22;4930652;28;120569;-75
2024/01/17 05:48:02;;;;;;;8.90;4.22;;;;;;;1.23;58.06;99582.19;4917336;28;124226;-75
2024/01/17 05:50:30;;;;;;;9.80;4.40;;;;;;;1.23;57.71;99577.81;4930559;28;124952;-75
2024/01/17 05:52:57;;;;;;;9.82;4.78;;;;;;;1.24;57.79;99569.09;4931705;28;119127;-75
2024/01/17 05:55:24;;;;;;;9.05;4.97;;;;;;;1.22;57.78;99564.81;4905576;28;119114;-75
2024/01/17 05:57:53;;;;;;;11.73;4.68;;;;;;;1.20;57.72;99562.25;4929741;28;124079;-75
2024/01/17 06:00:21;;;;;;;12.77;4.82;;;;;;;1.20;57.86;99551.81;4930201;28;124450;-75
2024/01/17 06:02:49;;;;;;;9.43;5.10;;;;;;;1.19;57.71;99555.34;4913950;28;118231;-74
2024/01/17 06:05:16;;;;;;;11.85;5.38;;;;;;;1.18;57.79;99551.00;4915045;28;118030;-75
2024/01/17 06:07:44;;;;;;;10.00;5.00;;;;;;;1.19;57.83;99534.47;4928002;28;123967;-75
2024/01/17 06:10:13;;;;;;;16.00;4.78;;;;;;;1.18;57.80;99535.38;4928877;28;123886;-74
2024/01/17 06:12:41;;;;;;;11.20;4.68;;;;;;;1.15;57.89;99532.88;4922154;28;118903;-76
2024/01/17 06:15:11;;;;;;;9.85;4.97;;;;;;;1.14;57.87;99531.97;4913547;28;118645;-74
2024/01/17 06:17:39;;;;;;;13.55;4.57;;;;;;;1.12;57.61;99527.72;4928871;28;123947;-75
2024/01/17 06:20:09;;;;;;;11.23;5.00;;;;;;;1.13;57.99;99518.97;4913961;28;123056;-75
2024/01/17 06:22:38;;;;;;;10.15;4.75;;;;;;;1.13;57.96;99513.75;4927858;28;119088;-73
2024/01/17 06:25:06;;;;;;;12.38;5.00;;;;;;;1.14;57.87;99515.50;4928598;28;118808;-73
2024/01/17 06:27:34;;;;;;;10.13;4.63;;;;;;;1.13;57.98;99524.19;4927512;28;126254;-74
2024/01/17 06:30:01;;;;;;;13.15;4.97;;;;;;;1.14;57.99;99525.91;4922031;28;124273;-73
2024/01/17 06:32:29;;;;;;;9.68;4.60;;;;;;;1.16;57.84;99524.13;4924892;28;120055;-73
2024/01/17 06:34:56;;;;;;;11.48;4.82;;;;;;;1.15;57.78;99514.59;4927948;28;120250;-73
2024/01/17 06:37:23;;;;;;;12.85;4.75;;;;;;;1.15;57.85;99507.63;4929880;28;123928;-73
2024/01/17 06:39:52;;;;;;;11.48;4.40;;;;;;;1.17;57.98;99510.19;4925445;28;123977;-73
2024/01/17 06:42:19;;;;;;;9.45;4.55;;;;;;;1.16;57.99;99504.09;4925610;28;119098;-73
2024/01/17 06:44:46;;;;;;;13.85;5.40;;;;;;;1.17;57.86;99500.63;4909957;28;119705;-73
2024/01/17 06:47:14;;;;;;;15.68;5.07;;;;;;;1.18;57.85;99501.47;4924897;28;123905;-73
2024/01/17 06:49:41;;;;;;;11.80;4.70;;;;;;;1.17;57.78;99499.78;4926641;28;124498;-73
2024/01/17 06:52:09;;;;;;;10.88;4.72;;;;;;;1.17;57.99;99494.56;4924355;28;119391;-74
2024/01/17 06:54:37;;;;;;;6.82;3.80;;;;;;;1.17;58.04;99486.72;4922284;28;119014;-73
2024/01/17 06:57:07;;;;;;;10.75;4.35;;;;;;;1.17;57.93;99489.34;4909571;28;123136;-74
2024/01/17 06:59:35;;;;;;;10.02;4.30;;;;;;;1.17;58.03;99489.34;4927785;28;123458;-73
2024/01/17 07:02:03;;;;;;;10.13;4.28;;;;;;;1.19;57.92;99487.53;4926318;28;119301;-73
2024/01/17 07:04:30;;;;;;;9.93;4.68;;;;;;;1.19;58.14;99487.53;4923174;28;117969;-73
2024/01/17 07:06:59;;;;;;;8.77;4.18;;;;;;;1.20;58.00;99478.81;4926581;28;124686;-73
2024/01/17 07:09:26;;;;;;;9.90;4.63;;;;;;;1.21;58.01;99475.31;4920092;28;123731;-73
2024/01/17 07:11:53;;;;;;;10.05;4.45;;;;;;;1.22;57.98;99460.50;4925459;28;120500;-73
2024/01/17 07:14:21;;;;;;;9.82;4.40;;;;;;;1.23;57.90;99451.81;4913109;28;119015;-74
2024/01/17 07:16:48;;;;;;;11.50;5.10;;;;;;;1.22;57.76;99448.31;4929099;28;124295;-73
2024/01/17 07:19:16;;;;;;;11.73;5.60;;;;;;;1.21;57.70;99454.44;4927660;28;122755;-73
2024/01/17 07:21:43;;;;;;;12.18;5.50;;;;;;;1.21;57.92;99438.81;4908434;28;120974;-73
2024/01/17 07:24:12;;;;;;;8.25;4.53;;;;;;;1.22;57.84;99435.28;4923554;28;119864;-73
2024/01/17 07:26:39;;;;;;;12.27;5.05;;;;;;;1.22;57.86;99435.28;4926296;28;123743;-73
2024/01/17 07:29:07;;;;;;;8.77;4.30;;;;;;;1.22;57.77;99424.84;4926925;28;123933;-73
2024/01/17 07:31:34;;;;;;;9.63;4.60;;;;;;;1.22;57.84;99417.03;4920618;28;119374;-73
2024/01/17 07:34:02;;;;;;;9.25;4.85;;;;;;;1.22;57.76;99422.25;4925410;28;119127;-73
2024/01/17 07:36:29;;;;;;;9.93;4.47;;;;;;;1.22;57.87;99417.03;4917862;28;124144;-73
2024/01/17 07:38:56;;;;;;;11.50;4.45;;;;;;;1.23;57.90;99410.91;4910478;28;123513;-73
2024/01/17 07:41:25;;;;;;;12.88;4.68;;;;;;;1.23;57.81;99403.09;4922209;28;118896;-73
2024/01/17 07:43:52;;;;;;;11.75;4.45;;;;;;;1.24;57.79;99401.34;4920984;28;119452;-73
2024/01/17 07:46:19;;;;;;;12.80;4.68;;;;;;;1.24;57.90;99396.97;4909245;28;123681;-73
2024/01/17 07:48:47;;;;;;;9.35;4.63;;;;;;;1.25;58.04;99388.25;4921793;28;124425;-73
2024/01/17 07:51:14;;;;;;;10.60;4.57;;;;;;;1.29;57.77;99384.66;4922738;28;120335;-73
2024/01/17 07:53:41;;;;;;;12.52;5.03;;;;;;;1.31;58.00;99388.06;4928304;28;118889;-72
2024/01/17 07:56:09;;;;;;;11.43;4.40;;;;;;;1.32;57.87;99384.56;4928279;28;124129;-73
2024/01/17 07:58:36;;;;;;;9.27;4.95;;;;;;;1.33;57.70;99383.66;4924752;28;123615;-73
2024/01/17 08:01:05;;;;;;;10.95;4.90;;;;;;;1.33;57.84;99375.81;4927832;28;119269;-72
2024/01/17 08:03:33;;;;;;;11.77;5.20;;;;;;;1.34;57.81;99366.28;4910509;28;117955;-72
2024/01/17 08:06:00;;;;;;;11.13;5.10;;;;;;;1.35;57.96;99363.59;4925060;28;124393;-72
2024/01/17 08:08:28;;;;;;;14.63;5.15;;;;;;;1.36;58.01;99365.31;4927556;28;124674;-72
2024/01/17 08:10:56;;;;;;;11.30;5.80;;;;;;;1.38;57.73;99367.03;4918818;28;120055;-72
2024/01/17 08:13:23;;;;;;;10.63;5.20;;;;;;;1.39;57.88;99364.34;4922346;28;119849;-72
2024/01/17 08:15:50;;;;;;;12.50;5.05;;;;;;;1.40;57.80;99360.84;4921841;28;123411;-72
2024/01/17 08:18:17;;;;;;;12.10;5.38;;;;;;;1.43;57.86;99341.63;4927028;28;122848;-72
2024/01/17 08:20:46;;;;;;;11.82;5.28;;;;;;;1.47;57.88;99340.63;4912812;28;119786;-72
2024/01/17 08:23:13;;;;;;;17.83;5.40;;;;;;;1.50;57.94;99340.53;4910767;28;118720;-72
2024/01/17 08:25:40;;;;;;;13.43;5.22;;;;;;;1.52;57.90;99338.72;4910969;28;123728;-72
2024/01/17 08:28:08;;;;;;;13.18;5.35;;;;;;;1.53;57.99;99340.44;4916307;28;124535;-72
2024/01/17 08:30:35;;;;;;;12.63;5.55;;;;;;;1.55;57.96;99328.19;4906911;28;118700;-72
2024/01/17 08:33:03;;;;;;;17.50;5.45;;;;;;;1.56;57.67;99324.69;4900088;28;119706;-72
2024/01/17 08:35:31;;;;;;;14.88;4.75;;;;;;;1.57;57.72;99315.97;4918382;28;124808;-72
2024/01/17 08:37:58;;;;;;;12.77;5.32;;;;;;;1.58;57.89;99312.44;4921221;28;123965;-72
2024/01/17 08:40:26;;;;;;;13.85;5.60;;;;;;;1.57;57.79;99315.97;4910346;28;119027;-72
2024/01/17 08:42:53;;;;;;;13.98;5.90;;;;;;;1.59;57.96;99310.69;4924718;28;120190;-72
2024/01/17 08:45:20;;;;;;;12.88;5.78;;;;;;;1.60;57.92;99305.44;4924142;28;124336;-71
2024/01/17 08:47:48;;;;;;;12.02;5.95;;;;;;;1.62;57.74;99306.22;4925080;28;123567;-71
2024/01/17 08:50:16;;;;;;;15.55;5.78;;;;;;;1.65;57.94;99300.03;4910262;28;118246;-72
2024/01/17 08:52:43;;;;;;;11.95;5.72;;;;;;;1.69;58.02;99302.50;4908586;28;119905;-71
2024/01/17 08:55:12;;;;;;;17.58;6.25;;;;;;;1.74;58.13;99297.97;4925829;28;123998;-71
2024/01/17 08:57:40;;;;;;;14.38;6.05;;;;;;;1.79;58.00;99289.13;4926214;28;124236;-71
2024/01/17 09:00:08;;;;;;;13.13;6.18;;;;;;;1.82;57.75;99281.22;4924828;28;120535;-71
2024/01/17 09:02:36;;;;;;;13.63;5.95;;;;;;;1.83;57.67;99280.28;4909322;28;119234;-71
2024/01/17 09:05:04;;;;;;;13.55;6.18;;;;;;;1.83;57.74;99280.28;4911664;28;122834;-71
2024/01/17 09:07:31;;;;;;;16.17;6.47;;;;;;;1.85;57.55;99273.28;4926712;28;124487;-71
2024/01/17 09:10:00;;;;;;;16.52;6.85;;;;;;;1.85;57.80;99268.06;4923731;28;119171;-71
2024/01/17 09:12:27;;;;;;;14.63;5.57;;;;;;;1.86;57.82;99269.75;4924718;28;119361;-71
2024/01/17 09:14:54;;;;;;;13.18;5.80;;;;;;;1.88;57.72;99267.94;4913818;28;123242;-71
2024/01/17 09:17:23;;;;;;;14.10;6.30;;;;;;;1.91;57.79;99267.84;4928264;28;124443;-71
2024/01/17 09:19:50;;;;;;;14.27;6.45;;;;;;;1.95;57.90;99243.31;4924453;28;119949;-71
2024/01/17 09:22:19;;;;;;;11.48;5.85;;;;;;;1.98;57.74;99235.41;4921375;28;119016;-71
2024/01/17 09:24:47;;;;;;;14.07;6.68;;;;;;;2.03;57.74;99241.28;4928019;28;124415;-71
2024/01/17 09:27:14;;;;;;;15.32;7.05;;;;;;;2.06;57.88;99230.72;4928678;28;123806;-71
2024/01/17 09:29:41;;;;;;;21.23;8.98;;;;;;;2.09;57.59;99235.84;4931530;28;119509;-71
2024/01/17 09:32:09;;;;;;;18.83;8.45;;;;;;;2.10;57.77;99241.91;4928456;28;119296;-71
2024/01/17 09:34:41;;;;;;;18.27;8.25;;;;;;;2.11;57.61;99239.25;4928373;28;124325;-71
2024/01/17 09:37:10;;;;;;;19.50;8.57;;;;;;;2.13;57.82;99227.00;4925493;28;123668;-71
2024/01/17 09:39:37;;;;;;;16.70;7.97;;;;;;;2.19;58.03;99230.31;4928597;28;117959;-71
2024/01/17 09:42:06;;;;;;;13.63;6.88;;;;;;;2.23;57.88;99226.66;4904987;28;119509;-71
2024/01/17 09:44:34;;;;;;;16.08;7.20;;;;;;;2.30;57.93;99235.97;4917606;28;123857;-71
2024/01/17 09:47:04;;;;;;;15.05;6.82;;;;;;;2.35;57.94;99231.41;4923145;28;123379;-71
2024/01/17 09:49:32;;;;;;;13.60;6.78;;;;;;;2.41;58.05;99231.22;4915814;28;120712;-71
2024/01/17 09:52:04;;;;;;;14.63;6.82;;;;;;;2.46;57.87;99228.41;4909174;28;120263;-71
2024/01/17 09:54:42;;;;;;;15.50;7.18;;;;;;;2.48;57.87;99230.03;4919391;28;124037;-71
2024/01/17 09:57:18;;;;;;;16.05;6.75;;;;;;;2.53;57.89;99224.66;4928996;28;124507;-71
2024/01/17 09:59:49;;;;;;;16.88;7.15;;;;;;;2.58;57.99;99221.84;4919236;28;118462;-71
2024/01/17 10:02:19;;;;;;;17.17;7.38;;;;;;;2.62;57.97;99223.44;4911260;28;118465;-71
2024/01/17 10:04:48;;;;;;;13.40;7.20;;;;;;;2.65;58.09;99223.31;4922377;28;125051;-71
2024/01/17 10:07:17;;;;;;;15.10;7.70;;;;;;;2.70;57.72;99218.78;4910922;28;123894;-71
2024/01/17 10:09:45;;;;;;;13.85;7.05;;;;;;;2.72;57.78;99209.94;4930137;28;120550;-71
2024/01/17 10:12:19;;;;;;;15.52;7.03;;;;;;;2.74;57.83;99199.44;4928268;28;118766;-70
2024/01/17 10:14:47;;;;;;;18.57;6.80;;;;;;;2.77;57.59;99196.72;4920349;28;123625;-70
2024/01/17 10:17:14;;;;;;;17.45;7.20;;;;;;;2.80;57.79;99191.34;4927131;28;125229;-70
2024/01/17 10:19:41;;;;;;;17.33;7.72;;;;;;;2.81;57.46;99190.44;4919517;28;119029;-70
2024/01/17 10:22:10;;;;;;;13.40;6.95;;;;;;;2.82;57.47;99184.28;4908689;28;119638;-71
2024/01/17 10:24:42;;;;;;;15.82;6.70;;;;;;;2.84;57.64;99182.47;4919383;28;123854;-71
2024/01/17 10:27:09;;;;;;;14.25;6.18;;;;;;;2.84;57.60;99177.22;4923138;28;123963;-71
2024/01/17 10:29:37;;;;;;;14.95;7.55;;;;;;;2.88;57.60;99176.22;4927877;28;119760;-71
2024/01/17 10:32:05;;;;;;;17.10;7.05;;;;;;;2.90;57.71;99171.78;4910216;28;119412;-71
2024/01/17 10:34:32;;;;;;;16.25;6.95;;;;;;;2.93;57.33;99160.34;4918959;28;124339;-71
2024/01/17 10:37:03;;;;;;;18.58;7.55;;;;;;;2.95;57.47;99163.72;4907638;28;124288;-70
2024/01/17 10:39:30;;;;;;;17.15;7.28;;;;;;;2.96;57.72;99159.34;4918102;28;120280;-70
2024/01/17 10:41:59;;;;;;;13.35;6.82;;;;;;;2.98;57.46;99152.31;4904638;28;120991;-70
2024/01/17 10:44:27;;;;;;;13.45;7.28;;;;;;;2.99;57.43;99154.00;4906898;28;123137;-70
2024/01/17 10:46:54;;;;;;;17.42;7.60;;;;;;;3.01;57.73;99152.16;4919571;28;123895;-71
2024/01/17 10:49:23;;;;;;;15.93;6.88;;;;;;;3.02;57.30;99143.44;4911085;28;118202;-71
2024/01/17 10:52:02;;;;;;;15.82;7.60;;;;;;;3.04;57.45;99144.22;4909756;28;120098;-70
2024/01/17 10:54:43;;;;;;;16.67;7.07;;;;;;;3.06;57.63;99145.00;4923767;28;123814;-70
2024/01/17 10:57:13;;;;;;;13.18;6.95;;;;;;;3.10;57.56;99141.34;4912593;28;122607;-70
2024/01/17 10:59:49;;;;;;;14.75;7.28;;;;;;;3.16;57.64;99135.00;4926381;28;119641;-70
2024/01/17 11:02:21;;;;;;;15.88;6.68;;;;;;;3.22;57.35;99119.91;4910898;28;118905;-70
2024/01/17 11:05:04;;;;;;;18.05;7.72;;;;;;;3.26;57.50;99116.22;4887716;28;123731;-70
2024/01/17 11:07:32;;;;;;;19.23;7.28;;;;;;;3.29;57.40;99110.84;4910062;28;124657;-70
2024/01/17 11:10:02;;;;;;;15.27;7.40;;;;;;;3.31;57.30;99113.41;4910267;28;119027;-70
2024/01/17 11:12:36;;;;;;;14.88;7.28;;;;;;;3.33;57.32;99110.72;4914966;28;118894;-70
2024/01/17 11:15:04;;;;;;;18.58;7.43;;;;;;;3.33;57.24;99108.09;4906295;28;123354;-70
2024/01/17 11:17:36;;;;;;;16.70;7.25;;;;;;;3.31;57.44;99098.56;4921445;28;124596;-70
2024/01/17 11:20:08;;;;;;;16.08;7.70;;;;;;;3.31;57.41;99095.97;4916894;28;119505;-70
2024/01/17 11:22:37;;;;;;;16.65;7.63;;;;;;;3.29;57.24;99104.78;4914890;28;119117;-70
2024/01/17 11:25:16;;;;;;;17.10;7.95;;;;;;;3.28;57.06;99088.22;4914082;28;124061;-70
2024/01/17 11:28:04;;;;;;;16.85;7.68;;;;;;;3.26;57.31;99084.84;4905397;28;122442;-71
2024/01/17 11:30:53;;;;;;;17.67;7.30;;;;;;;3.26;57.21;99084.84;4925031;28;120380;-71
2024/01/17 11:33:21;;;;;;;18.05;7.72;;;;;;;3.27;57.20;99080.44;4904923;28;120240;-71